sensor_id;sensor_type;location;lat;lon;timestamp;P1;durP1;ratioP1;P2;durP2;ratioP2
11823;SDS011;5969;50.780;7.726;2023-07-31T00:01:38;4.75;;;2.47;;
11823;SDS011;5969;50.780;7.726;2023-07-31T00:04:04;4.40;;;2.65;;
11823;SDS011;5969;50.780;7.726;2023-07-31T00:06:32;4.57;;;2.72;;
11823;SDS011;5969;50.780;7.726;2023-07-31T00:08:59;3.53;;;2.53;;
11823;SDS011;5969;50.780;7.726;2023-07-31T00:11:26;3.17;;;2.50;;
11823;SDS011;5969;50.780;7.726;2023-07-31T00:13:53;3.58;;;2.30;;
11823;SDS011;5969;50.780;7.726;2023-07-31T00:16:19;5.55;;;2.70;;
11823;SDS011;5969;50.780;7.726;2023-07-31T00:18:46;3.83;;;2.45;;
11823;SDS011;5969;50.780;7.726;2023-07-31T00:21:13;3.55;;;2.67;;
11823;SDS011;5969;50.780;7.726;2023-07-31T00:23:41;4.47;;;2.83;;
11823;SDS011;5969;50.780;7.726;2023-07-31T00:26:08;3.80;;;2.50;;
11823;SDS011;5969;50.780;7.726;2023-07-31T00:28:35;3.90;;;2.95;;
11823;SDS011;5969;50.780;7.726;2023-07-31T00:31:01;4.05;;;2.83;;
11823;SDS011;5969;50.780;7.726;2023-07-31T00:33:29;4.82;;;2.50;;
11823;SDS011;5969;50.780;7.726;2023-07-31T00:35:57;6.07;;;2.60;;
11823;SDS011;5969;50.780;7.726;2023-07-31T00:38:24;4.20;;;2.60;;
11823;SDS011;5969;50.780;7.726;2023-07-31T00:40:52;5.32;;;2.92;;
11823;SDS011;5969;50.780;7.726;2023-07-31T00:43:18;4.80;;;3.00;;
11823;SDS011;5969;50.780;7.726;2023-07-31T00:45:45;3.95;;;2.70;;
11823;SDS011;5969;50.780;7.726;2023-07-31T00:48:12;4.57;;;2.70;;
11823;SDS011;5969;50.780;7.726;2023-07-31T00:50:39;3.50;;;2.60;;
11823;SDS011;5969;50.780;7.726;2023-07-31T00:53:06;7.28;;;2.75;;
11823;SDS011;5969;50.780;7.726;2023-07-31T00:55:32;4.72;;;2.70;;
11823;SDS011;5969;50.780;7.726;2023-07-31T00:58:01;3.75;;;2.45;;
11823;SDS011;5969;50.780;7.726;2023-07-31T01:00:27;4.18;;;2.80;;
11823;SDS011;5969;50.780;7.726;2023-07-31T01:02:54;4.68;;;2.33;;
11823;SDS011;5969;50.780;7.726;2023-07-31T01:05:23;3.67;;;2.58;;
11823;SDS011;5969;50.780;7.726;2023-07-31T01:08:01;3.70;;;2.75;;
11823;SDS011;5969;50.780;7.726;2023-07-31T01:10:37;4.38;;;2.45;;
11823;SDS011;5969;50.780;7.726;2023-07-31T01:13:14;6.28;;;2.63;;
11823;SDS011;5969;50.780;7.726;2023-07-31T01:15:41;7.22;;;2.80;;
11823;SDS011;5969;50.780;7.726;2023-07-31T01:18:08;4.75;;;2.85;;
11823;SDS011;5969;50.780;7.726;2023-07-31T01:20:35;4.45;;;2.50;;
11823;SDS011;5969;50.780;7.726;2023-07-31T01:26:04;4.43;;;2.50;;
11823;SDS011;5969;50.780;7.726;2023-07-31T01:28:39;6.82;;;2.28;;
11823;SDS011;5969;50.780;7.726;2023-07-31T01:31:13;4.18;;;2.72;;
11823;SDS011;5969;50.780;7.726;2023-07-31T01:33:44;4.70;;;2.55;;
11823;SDS011;5969;50.780;7.726;2023-07-31T01:36:12;3.33;;;2.35;;
11823;SDS011;5969;50.780;7.726;2023-07-31T01:38:39;5.75;;;2.80;;
11823;SDS011;5969;50.780;7.726;2023-07-31T01:41:08;4.10;;;2.28;;
11823;SDS011;5969;50.780;7.726;2023-07-31T01:43:35;4.38;;;2.60;;
11823;SDS011;5969;50.780;7.726;2023-07-31T01:46:02;4.22;;;2.28;;
11823;SDS011;5969;50.780;7.726;2023-07-31T01:48:28;3.58;;;2.20;;
11823;SDS011;5969;50.780;7.726;2023-07-31T01:51:00;3.15;;;2.10;;
11823;SDS011;5969;50.780;7.726;2023-07-31T01:53:28;6.38;;;3.08;;
11823;SDS011;5969;50.780;7.726;2023-07-31T01:55:55;3.50;;;2.60;;
11823;SDS011;5969;50.780;7.726;2023-07-31T01:58:23;5.97;;;2.50;;
11823;SDS011;5969;50.780;7.726;2023-07-31T02:00:50;4.05;;;2.60;;
11823;SDS011;5969;50.780;7.726;2023-07-31T02:03:17;3.20;;;2.20;;
11823;SDS011;5969;50.780;7.726;2023-07-31T02:05:44;3.97;;;2.47;;
11823;SDS011;5969;50.780;7.726;2023-07-31T02:08:11;3.80;;;2.80;;
11823;SDS011;5969;50.780;7.726;2023-07-31T02:10:38;4.10;;;2.67;;
11823;SDS011;5969;50.780;7.726;2023-07-31T02:13:05;5.03;;;3.20;;
11823;SDS011;5969;50.780;7.726;2023-07-31T02:15:33;5.28;;;3.00;;
11823;SDS011;5969;50.780;7.726;2023-07-31T02:18:00;6.25;;;3.00;;
11823;SDS011;5969;50.780;7.726;2023-07-31T02:20:27;4.10;;;2.90;;
11823;SDS011;5969;50.780;7.726;2023-07-31T02:22:53;6.70;;;3.15;;
11823;SDS011;5969;50.780;7.726;2023-07-31T02:25:20;5.60;;;2.75;;
11823;SDS011;5969;50.780;7.726;2023-07-31T02:27:47;6.68;;;3.35;;
11823;SDS011;5969;50.780;7.726;2023-07-31T02:30:14;4.35;;;3.42;;
11823;SDS011;5969;50.780;7.726;2023-07-31T02:32:42;5.25;;;3.28;;
11823;SDS011;5969;50.780;7.726;2023-07-31T02:35:09;5.32;;;3.58;;
11823;SDS011;5969;50.780;7.726;2023-07-31T02:37:40;4.13;;;2.90;;
11823;SDS011;5969;50.780;7.726;2023-07-31T02:40:08;5.88;;;2.92;;
11823;SDS011;5969;50.780;7.726;2023-07-31T02:42:35;6.18;;;3.13;;
11823;SDS011;5969;50.780;7.726;2023-07-31T02:45:02;4.85;;;2.95;;
11823;SDS011;5969;50.780;7.726;2023-07-31T02:47:29;4.20;;;2.85;;
11823;SDS011;5969;50.780;7.726;2023-07-31T02:49:58;6.75;;;3.38;;
11823;SDS011;5969;50.780;7.726;2023-07-31T02:52:25;5.30;;;3.10;;
11823;SDS011;5969;50.780;7.726;2023-07-31T02:54:52;4.90;;;3.67;;
11823;SDS011;5969;50.780;7.726;2023-07-31T02:57:18;5.43;;;3.00;;
11823;SDS011;5969;50.780;7.726;2023-07-31T02:59:45;3.67;;;2.67;;
11823;SDS011;5969;50.780;7.726;2023-07-31T03:02:12;6.72;;;3.50;;
11823;SDS011;5969;50.780;7.726;2023-07-31T03:04:39;4.82;;;3.20;;
11823;SDS011;5969;50.780;7.726;2023-07-31T03:07:07;4.65;;;3.20;;
11823;SDS011;5969;50.780;7.726;2023-07-31T03:09:34;5.82;;;3.30;;
11823;SDS011;5969;50.780;7.726;2023-07-31T03:12:01;5.63;;;3.30;;
11823;SDS011;5969;50.780;7.726;2023-07-31T03:14:28;4.65;;;3.05;;
11823;SDS011;5969;50.780;7.726;2023-07-31T03:16:55;4.93;;;3.50;;
11823;SDS011;5969;50.780;7.726;2023-07-31T03:19:22;4.72;;;3.10;;
11823;SDS011;5969;50.780;7.726;2023-07-31T03:21:48;4.45;;;3.33;;
11823;SDS011;5969;50.780;7.726;2023-07-31T03:24:16;4.40;;;3.03;;
11823;SDS011;5969;50.780;7.726;2023-07-31T03:26:43;5.55;;;3.35;;
11823;SDS011;5969;50.780;7.726;2023-07-31T03:29:10;5.85;;;3.47;;
11823;SDS011;5969;50.780;7.726;2023-07-31T03:31:37;7.65;;;3.10;;
11823;SDS011;5969;50.780;7.726;2023-07-31T03:34:04;6.15;;;3.08;;
11823;SDS011;5969;50.780;7.726;2023-07-31T03:36:31;8.02;;;2.97;;
11823;SDS011;5969;50.780;7.726;2023-07-31T03:38:58;5.53;;;3.70;;
11823;SDS011;5969;50.780;7.726;2023-07-31T03:41:26;4.85;;;2.70;;
11823;SDS011;5969;50.780;7.726;2023-07-31T03:43:53;4.38;;;2.85;;
11823;SDS011;5969;50.780;7.726;2023-07-31T03:46:21;5.05;;;3.10;;
11823;SDS011;5969;50.780;7.726;2023-07-31T03:48:48;7.25;;;3.42;;
11823;SDS011;5969;50.780;7.726;2023-07-31T03:51:16;7.30;;;3.22;;
11823;SDS011;5969;50.780;7.726;2023-07-31T03:53:43;3.92;;;2.97;;
11823;SDS011;5969;50.780;7.726;2023-07-31T03:56:10;4.78;;;3.10;;
11823;SDS011;5969;50.780;7.726;2023-07-31T03:58:39;5.40;;;3.38;;
11823;SDS011;5969;50.780;7.726;2023-07-31T04:01:05;6.03;;;3.10;;
11823;SDS011;5969;50.780;7.726;2023-07-31T04:03:32;5.70;;;3.45;;
11823;SDS011;5969;50.780;7.726;2023-07-31T04:05:59;5.07;;;3.20;;
11823;SDS011;5969;50.780;7.726;2023-07-31T04:08:26;4.63;;;3.00;;
11823;SDS011;5969;50.780;7.726;2023-07-31T04:10:53;4.88;;;3.08;;
11823;SDS011;5969;50.780;7.726;2023-07-31T04:13:21;6.22;;;3.50;;
11823;SDS011;5969;50.780;7.726;2023-07-31T04:15:49;5.40;;;3.00;;
11823;SDS011;5969;50.780;7.726;2023-07-31T04:18:16;5.57;;;3.03;;
11823;SDS011;5969;50.780;7.726;2023-07-31T04:20:43;6.13;;;3.47;;
11823;SDS011;5969;50.780;7.726;2023-07-31T04:23:10;4.78;;;3.00;;
11823;SDS011;5969;50.780;7.726;2023-07-31T04:25:37;5.90;;;3.38;;
11823;SDS011;5969;50.780;7.726;2023-07-31T04:28:04;4.65;;;2.92;;
11823;SDS011;5969;50.780;7.726;2023-07-31T04:30:31;6.38;;;3.05;;
11823;SDS011;5969;50.780;7.726;2023-07-31T04:32:59;5.40;;;3.05;;
11823;SDS011;5969;50.780;7.726;2023-07-31T04:35:26;4.50;;;2.97;;
11823;SDS011;5969;50.780;7.726;2023-07-31T04:37:53;6.40;;;3.08;;
11823;SDS011;5969;50.780;7.726;2023-07-31T04:40:20;5.45;;;2.97;;
11823;SDS011;5969;50.780;7.726;2023-07-31T04:42:47;4.95;;;3.20;;
11823;SDS011;5969;50.780;7.726;2023-07-31T04:45:14;5.63;;;2.90;;
11823;SDS011;5969;50.780;7.726;2023-07-31T04:47:44;5.03;;;3.10;;
11823;SDS011;5969;50.780;7.726;2023-07-31T04:50:12;7.32;;;3.00;;
11823;SDS011;5969;50.780;7.726;2023-07-31T04:52:39;5.50;;;2.97;;
11823;SDS011;5969;50.780;7.726;2023-07-31T04:55:06;7.68;;;3.03;;
11823;SDS011;5969;50.780;7.726;2023-07-31T04:57:33;5.47;;;3.30;;
11823;SDS011;5969;50.780;7.726;2023-07-31T05:00:00;4.53;;;2.88;;
11823;SDS011;5969;50.780;7.726;2023-07-31T05:02:27;5.88;;;2.78;;
11823;SDS011;5969;50.780;7.726;2023-07-31T05:04:54;4.65;;;2.90;;
11823;SDS011;5969;50.780;7.726;2023-07-31T05:07:23;6.20;;;2.70;;
11823;SDS011;5969;50.780;7.726;2023-07-31T05:09:50;3.20;;;2.60;;
11823;SDS011;5969;50.780;7.726;2023-07-31T05:12:16;7.38;;;3.17;;
11823;SDS011;5969;50.780;7.726;2023-07-31T05:14:43;4.72;;;3.00;;
11823;SDS011;5969;50.780;7.726;2023-07-31T05:17:10;6.32;;;2.75;;
11823;SDS011;5969;50.780;7.726;2023-07-31T05:19:37;3.72;;;2.55;;
11823;SDS011;5969;50.780;7.726;2023-07-31T05:22:05;5.05;;;3.17;;
11823;SDS011;5969;50.780;7.726;2023-07-31T05:24:33;5.55;;;3.10;;
11823;SDS011;5969;50.780;7.726;2023-07-31T05:27:01;5.85;;;2.90;;
11823;SDS011;5969;50.780;7.726;2023-07-31T05:29:29;4.13;;;2.50;;
11823;SDS011;5969;50.780;7.726;2023-07-31T05:31:56;4.15;;;2.58;;
11823;SDS011;5969;50.780;7.726;2023-07-31T05:34:26;5.05;;;3.15;;
11823;SDS011;5969;50.780;7.726;2023-07-31T05:36:53;3.35;;;2.65;;
11823;SDS011;5969;50.780;7.726;2023-07-31T05:39:20;5.70;;;2.97;;
11823;SDS011;5969;50.780;7.726;2023-07-31T05:41:48;4.05;;;2.50;;
11823;SDS011;5969;50.780;7.726;2023-07-31T05:44:15;4.28;;;2.92;;
11823;SDS011;5969;50.780;7.726;2023-07-31T05:46:42;4.00;;;2.97;;
11823;SDS011;5969;50.780;7.726;2023-07-31T05:49:09;3.78;;;3.05;;
11823;SDS011;5969;50.780;7.726;2023-07-31T05:51:35;4.55;;;2.78;;
11823;SDS011;5969;50.780;7.726;2023-07-31T05:54:02;3.38;;;2.60;;
11823;SDS011;5969;50.780;7.726;2023-07-31T05:56:29;5.07;;;3.17;;
11823;SDS011;5969;50.780;7.726;2023-07-31T05:59:00;5.40;;;2.92;;
11823;SDS011;5969;50.780;7.726;2023-07-31T06:01:27;6.22;;;3.15;;
11823;SDS011;5969;50.780;7.726;2023-07-31T06:03:54;3.40;;;2.47;;
11823;SDS011;5969;50.780;7.726;2023-07-31T06:06:21;5.85;;;2.38;;
11823;SDS011;5969;50.780;7.726;2023-07-31T06:08:48;6.10;;;2.83;;
11823;SDS011;5969;50.780;7.726;2023-07-31T06:11:15;4.80;;;2.60;;
11823;SDS011;5969;50.780;7.726;2023-07-31T06:13:42;3.40;;;2.92;;
11823;SDS011;5969;50.780;7.726;2023-07-31T06:16:11;4.57;;;2.95;;
11823;SDS011;5969;50.780;7.726;2023-07-31T06:18:38;6.45;;;3.25;;
11823;SDS011;5969;50.780;7.726;2023-07-31T06:21:04;3.95;;;2.65;;
11823;SDS011;5969;50.780;7.726;2023-07-31T06:23:32;2.85;;;2.63;;
11823;SDS011;5969;50.780;7.726;2023-07-31T06:25:58;5.68;;;3.13;;
11823;SDS011;5969;50.780;7.726;2023-07-31T06:28:27;5.40;;;3.10;;
11823;SDS011;5969;50.780;7.726;2023-07-31T06:30:55;4.22;;;2.90;;
11823;SDS011;5969;50.780;7.726;2023-07-31T06:33:23;4.97;;;2.72;;
11823;SDS011;5969;50.780;7.726;2023-07-31T06:35:50;4.10;;;2.50;;
11823;SDS011;5969;50.780;7.726;2023-07-31T06:38:18;6.20;;;2.92;;
11823;SDS011;5969;50.780;7.726;2023-07-31T06:40:48;2.90;;;2.58;;
11823;SDS011;5969;50.780;7.726;2023-07-31T06:43:15;5.30;;;3.17;;
11823;SDS011;5969;50.780;7.726;2023-07-31T06:45:42;2.33;;;2.00;;
11823;SDS011;5969;50.780;7.726;2023-07-31T06:48:09;3.10;;;2.47;;
11823;SDS011;5969;50.780;7.726;2023-07-31T06:50:37;5.03;;;2.97;;
11823;SDS011;5969;50.780;7.726;2023-07-31T06:53:04;3.53;;;2.53;;
11823;SDS011;5969;50.780;7.726;2023-07-31T06:55:31;5.07;;;2.55;;
11823;SDS011;5969;50.780;7.726;2023-07-31T06:57:58;4.22;;;2.97;;
11823;SDS011;5969;50.780;7.726;2023-07-31T07:00:25;4.95;;;2.88;;
11823;SDS011;5969;50.780;7.726;2023-07-31T07:02:53;5.60;;;3.00;;
11823;SDS011;5969;50.780;7.726;2023-07-31T07:05:20;4.88;;;2.80;;
11823;SDS011;5969;50.780;7.726;2023-07-31T07:07:50;5.97;;;2.75;;
11823;SDS011;5969;50.780;7.726;2023-07-31T07:10:17;4.32;;;2.78;;
11823;SDS011;5969;50.780;7.726;2023-07-31T07:12:44;3.67;;;2.88;;
11823;SDS011;5969;50.780;7.726;2023-07-31T07:15:13;3.53;;;2.83;;
11823;SDS011;5969;50.780;7.726;2023-07-31T07:17:55;5.82;;;3.13;;
11823;SDS011;5969;50.780;7.726;2023-07-31T07:20:21;3.95;;;2.83;;
11823;SDS011;5969;50.780;7.726;2023-07-31T07:22:50;7.40;;;3.05;;
11823;SDS011;5969;50.780;7.726;2023-07-31T07:25:17;3.88;;;2.90;;
11823;SDS011;5969;50.780;7.726;2023-07-31T07:27:44;5.20;;;2.90;;
11823;SDS011;5969;50.780;7.726;2023-07-31T07:30:11;5.38;;;3.15;;
11823;SDS011;5969;50.780;7.726;2023-07-31T07:32:39;4.72;;;3.20;;
11823;SDS011;5969;50.780;7.726;2023-07-31T07:35:06;6.05;;;2.88;;
11823;SDS011;5969;50.780;7.726;2023-07-31T07:37:33;6.47;;;3.50;;
11823;SDS011;5969;50.780;7.726;2023-07-31T07:40:02;4.28;;;2.88;;
11823;SDS011;5969;50.780;7.726;2023-07-31T07:42:29;3.42;;;2.92;;
11823;SDS011;5969;50.780;7.726;2023-07-31T07:44:56;5.63;;;3.10;;
11823;SDS011;5969;50.780;7.726;2023-07-31T07:47:22;5.05;;;2.95;;
11823;SDS011;5969;50.780;7.726;2023-07-31T07:49:49;4.75;;;3.00;;
11823;SDS011;5969;50.780;7.726;2023-07-31T07:52:16;5.15;;;3.40;;
11823;SDS011;5969;50.780;7.726;2023-07-31T07:54:43;6.03;;;3.00;;
11823;SDS011;5969;50.780;7.726;2023-07-31T07:57:11;4.57;;;2.95;;
11823;SDS011;5969;50.780;7.726;2023-07-31T07:59:38;7.28;;;3.97;;
11823;SDS011;5969;50.780;7.726;2023-07-31T08:02:05;7.47;;;3.08;;
11823;SDS011;5969;50.780;7.726;2023-07-31T08:04:32;7.10;;;3.08;;
11823;SDS011;5969;50.780;7.726;2023-07-31T08:06:59;5.50;;;2.97;;
11823;SDS011;5969;50.780;7.726;2023-07-31T08:09:25;4.85;;;3.17;;
11823;SDS011;5969;50.780;7.726;2023-07-31T08:11:52;3.53;;;2.67;;
11823;SDS011;5969;50.780;7.726;2023-07-31T08:14:22;9.38;;;3.35;;
11823;SDS011;5969;50.780;7.726;2023-07-31T08:16:49;6.60;;;3.65;;
11823;SDS011;5969;50.780;7.726;2023-07-31T08:19:15;4.28;;;2.85;;
11823;SDS011;5969;50.780;7.726;2023-07-31T08:21:42;6.03;;;3.00;;
11823;SDS011;5969;50.780;7.726;2023-07-31T08:24:09;5.00;;;3.53;;
11823;SDS011;5969;50.780;7.726;2023-07-31T08:26:36;5.70;;;3.20;;
11823;SDS011;5969;50.780;7.726;2023-07-31T08:29:03;5.85;;;4.03;;
11823;SDS011;5969;50.780;7.726;2023-07-31T08:31:31;6.45;;;3.45;;
11823;SDS011;5969;50.780;7.726;2023-07-31T08:33:59;5.05;;;3.50;;
11823;SDS011;5969;50.780;7.726;2023-07-31T08:36:27;5.95;;;3.67;;
11823;SDS011;5969;50.780;7.726;2023-07-31T08:38:53;7.13;;;3.17;;
11823;SDS011;5969;50.780;7.726;2023-07-31T08:41:20;6.80;;;3.75;;
11823;SDS011;5969;50.780;7.726;2023-07-31T08:43:47;6.85;;;3.30;;
11823;SDS011;5969;50.780;7.726;2023-07-31T08:46:16;4.80;;;3.60;;
11823;SDS011;5969;50.780;7.726;2023-07-31T08:48:44;5.70;;;3.63;;
11823;SDS011;5969;50.780;7.726;2023-07-31T08:51:13;8.25;;;4.18;;
11823;SDS011;5969;50.780;7.726;2023-07-31T08:53:40;6.45;;;3.70;;
11823;SDS011;5969;50.780;7.726;2023-07-31T08:56:07;6.82;;;4.32;;
11823;SDS011;5969;50.780;7.726;2023-07-31T08:58:35;5.38;;;3.53;;
11823;SDS011;5969;50.780;7.726;2023-07-31T09:01:03;7.45;;;4.07;;
11823;SDS011;5969;50.780;7.726;2023-07-31T09:03:33;5.65;;;3.80;;
11823;SDS011;5969;50.780;7.726;2023-07-31T09:06:02;7.20;;;3.67;;
11823;SDS011;5969;50.780;7.726;2023-07-31T09:08:31;7.20;;;4.32;;
11823;SDS011;5969;50.780;7.726;2023-07-31T09:11:01;9.18;;;4.38;;
11823;SDS011;5969;50.780;7.726;2023-07-31T09:13:30;7.22;;;4.20;;
11823;SDS011;5969;50.780;7.726;2023-07-31T09:15:57;7.97;;;3.80;;
11823;SDS011;5969;50.780;7.726;2023-07-31T09:18:24;6.57;;;4.10;;
11823;SDS011;5969;50.780;7.726;2023-07-31T09:21:03;5.80;;;3.50;;
11823;SDS011;5969;50.780;7.726;2023-07-31T09:23:42;6.28;;;4.03;;
11823;SDS011;5969;50.780;7.726;2023-07-31T09:26:10;6.22;;;3.72;;
11823;SDS011;5969;50.780;7.726;2023-07-31T09:28:40;6.45;;;4.20;;
11823;SDS011;5969;50.780;7.726;2023-07-31T09:31:07;6.25;;;3.95;;
11823;SDS011;5969;50.780;7.726;2023-07-31T09:33:33;6.97;;;3.95;;
11823;SDS011;5969;50.780;7.726;2023-07-31T09:36:21;7.53;;;4.40;;
11823;SDS011;5969;50.780;7.726;2023-07-31T09:38:48;9.48;;;4.50;;
11823;SDS011;5969;50.780;7.726;2023-07-31T09:41:15;9.50;;;4.20;;
11823;SDS011;5969;50.780;7.726;2023-07-31T09:43:42;9.45;;;4.30;;
11823;SDS011;5969;50.780;7.726;2023-07-31T09:46:20;7.82;;;4.30;;
11823;SDS011;5969;50.780;7.726;2023-07-31T09:48:47;5.65;;;3.92;;
11823;SDS011;5969;50.780;7.726;2023-07-31T09:51:14;8.38;;;4.45;;
11823;SDS011;5969;50.780;7.726;2023-07-31T09:53:42;9.07;;;4.40;;
11823;SDS011;5969;50.780;7.726;2023-07-31T09:56:16;6.95;;;4.25;;
11823;SDS011;5969;50.780;7.726;2023-07-31T09:58:44;8.35;;;4.28;;
11823;SDS011;5969;50.780;7.726;2023-07-31T10:01:11;7.43;;;4.38;;
11823;SDS011;5969;50.780;7.726;2023-07-31T10:03:38;7.43;;;3.65;;
11823;SDS011;5969;50.780;7.726;2023-07-31T10:06:06;7.35;;;4.45;;
11823;SDS011;5969;50.780;7.726;2023-07-31T10:08:35;7.07;;;4.50;;
11823;SDS011;5969;50.780;7.726;2023-07-31T10:11:04;7.25;;;4.65;;
11823;SDS011;5969;50.780;7.726;2023-07-31T10:13:35;8.60;;;4.30;;
11823;SDS011;5969;50.780;7.726;2023-07-31T10:16:03;6.90;;;4.07;;
11823;SDS011;5969;50.780;7.726;2023-07-31T10:18:30;8.82;;;4.32;;
11823;SDS011;5969;50.780;7.726;2023-07-31T10:20:57;7.57;;;3.90;;
11823;SDS011;5969;50.780;7.726;2023-07-31T10:23:24;7.45;;;4.30;;
11823;SDS011;5969;50.780;7.726;2023-07-31T10:25:52;7.15;;;4.63;;
11823;SDS011;5969;50.780;7.726;2023-07-31T10:28:21;7.47;;;4.15;;
11823;SDS011;5969;50.780;7.726;2023-07-31T10:31:09;5.53;;;4.03;;
11823;SDS011;5969;50.780;7.726;2023-07-31T10:33:41;6.50;;;3.97;;
11823;SDS011;5969;50.780;7.726;2023-07-31T10:36:14;7.85;;;4.35;;
11823;SDS011;5969;50.780;7.726;2023-07-31T10:38:44;10.10;;;4.47;;
11823;SDS011;5969;50.780;7.726;2023-07-31T10:41:11;8.18;;;4.28;;
11823;SDS011;5969;50.780;7.726;2023-07-31T10:43:42;8.20;;;4.22;;
11823;SDS011;5969;50.780;7.726;2023-07-31T10:46:12;5.53;;;3.65;;
11823;SDS011;5969;50.780;7.726;2023-07-31T10:48:40;7.13;;;3.90;;
11823;SDS011;5969;50.780;7.726;2023-07-31T10:51:08;9.35;;;4.30;;
11823;SDS011;5969;50.780;7.726;2023-07-31T10:53:37;8.18;;;3.97;;
11823;SDS011;5969;50.780;7.726;2023-07-31T10:56:05;6.90;;;3.83;;
11823;SDS011;5969;50.780;7.726;2023-07-31T10:58:33;5.57;;;3.80;;
11823;SDS011;5969;50.780;7.726;2023-07-31T11:01:02;4.85;;;3.80;;
11823;SDS011;5969;50.780;7.726;2023-07-31T11:03:43;7.88;;;4.15;;
11823;SDS011;5969;50.780;7.726;2023-07-31T11:06:13;7.65;;;3.90;;
11823;SDS011;5969;50.780;7.726;2023-07-31T11:08:43;5.18;;;4.00;;
11823;SDS011;5969;50.780;7.726;2023-07-31T11:11:11;4.30;;;3.30;;
11823;SDS011;5969;50.780;7.726;2023-07-31T11:13:39;5.97;;;3.15;;
11823;SDS011;5969;50.780;7.726;2023-07-31T11:16:09;5.68;;;3.65;;
11823;SDS011;5969;50.780;7.726;2023-07-31T11:18:38;7.88;;;3.35;;
11823;SDS011;5969;50.780;7.726;2023-07-31T11:21:06;5.55;;;3.63;;
11823;SDS011;5969;50.780;7.726;2023-07-31T11:23:33;6.25;;;3.47;;
11823;SDS011;5969;50.780;7.726;2023-07-31T11:26:02;6.75;;;3.20;;
11823;SDS011;5969;50.780;7.726;2023-07-31T11:28:31;5.50;;;3.25;;
11823;SDS011;5969;50.780;7.726;2023-07-31T11:30:59;4.85;;;2.92;;
11823;SDS011;5969;50.780;7.726;2023-07-31T11:33:28;5.20;;;3.05;;
11823;SDS011;5969;50.780;7.726;2023-07-31T11:35:55;5.15;;;3.00;;
11823;SDS011;5969;50.780;7.726;2023-07-31T11:38:22;5.45;;;3.13;;
11823;SDS011;5969;50.780;7.726;2023-07-31T11:40:51;4.25;;;3.05;;
11823;SDS011;5969;50.780;7.726;2023-07-31T11:43:18;5.75;;;3.33;;
11823;SDS011;5969;50.780;7.726;2023-07-31T11:45:46;5.20;;;3.17;;
11823;SDS011;5969;50.780;7.726;2023-07-31T11:48:20;4.70;;;2.97;;
11823;SDS011;5969;50.780;7.726;2023-07-31T11:50:50;4.47;;;2.90;;
11823;SDS011;5969;50.780;7.726;2023-07-31T11:53:19;6.65;;;3.05;;
11823;SDS011;5969;50.780;7.726;2023-07-31T11:55:48;4.10;;;2.83;;
11823;SDS011;5969;50.780;7.726;2023-07-31T11:58:16;3.60;;;2.55;;
11823;SDS011;5969;50.780;7.726;2023-07-31T12:00:44;5.05;;;3.35;;
11823;SDS011;5969;50.780;7.726;2023-07-31T12:03:11;5.05;;;2.65;;
11823;SDS011;5969;50.780;7.726;2023-07-31T12:05:38;5.95;;;3.00;;
11823;SDS011;5969;50.780;7.726;2023-07-31T12:08:10;4.57;;;2.80;;
11823;SDS011;5969;50.780;7.726;2023-07-31T12:10:37;4.60;;;2.88;;
11823;SDS011;5969;50.780;7.726;2023-07-31T12:13:08;4.43;;;2.65;;
11823;SDS011;5969;50.780;7.726;2023-07-31T12:15:39;6.63;;;2.50;;
11823;SDS011;5969;50.780;7.726;2023-07-31T12:18:07;4.53;;;2.80;;
11823;SDS011;5969;50.780;7.726;2023-07-31T12:20:35;2.58;;;2.20;;
11823;SDS011;5969;50.780;7.726;2023-07-31T12:23:06;4.50;;;2.55;;
11823;SDS011;5969;50.780;7.726;2023-07-31T12:25:40;3.10;;;2.40;;
11823;SDS011;5969;50.780;7.726;2023-07-31T12:28:07;3.35;;;2.20;;
11823;SDS011;5969;50.780;7.726;2023-07-31T12:30:37;3.92;;;2.58;;
11823;SDS011;5969;50.780;7.726;2023-07-31T12:33:05;4.05;;;2.28;;
11823;SDS011;5969;50.780;7.726;2023-07-31T12:35:36;4.88;;;2.60;;
11823;SDS011;5969;50.780;7.726;2023-07-31T12:38:04;5.47;;;2.78;;
11823;SDS011;5969;50.780;7.726;2023-07-31T12:40:31;3.10;;;2.30;;
11823;SDS011;5969;50.780;7.726;2023-07-31T12:43:01;2.45;;;2.15;;
11823;SDS011;5969;50.780;7.726;2023-07-31T12:45:29;3.85;;;2.33;;
11823;SDS011;5969;50.780;7.726;2023-07-31T12:47:56;2.53;;;1.98;;
11823;SDS011;5969;50.780;7.726;2023-07-31T12:50:23;2.97;;;2.10;;
11823;SDS011;5969;50.780;7.726;2023-07-31T12:52:50;2.40;;;1.85;;
11823;SDS011;5969;50.780;7.726;2023-07-31T12:55:17;2.03;;;1.80;;
11823;SDS011;5969;50.780;7.726;2023-07-31T12:57:44;2.83;;;2.13;;
11823;SDS011;5969;50.780;7.726;2023-07-31T13:00:13;2.88;;;1.90;;
11823;SDS011;5969;50.780;7.726;2023-07-31T13:02:40;2.05;;;1.85;;
11823;SDS011;5969;50.780;7.726;2023-07-31T13:05:07;2.90;;;1.98;;
11823;SDS011;5969;50.780;7.726;2023-07-31T13:07:34;2.60;;;2.08;;
11823;SDS011;5969;50.780;7.726;2023-07-31T13:10:01;2.78;;;1.90;;
11823;SDS011;5969;50.780;7.726;2023-07-31T13:12:28;3.33;;;1.70;;
11823;SDS011;5969;50.780;7.726;2023-07-31T13:14:55;2.08;;;1.65;;
11823;SDS011;5969;50.780;7.726;2023-07-31T13:17:23;2.47;;;1.83;;
11823;SDS011;5969;50.780;7.726;2023-07-31T13:19:50;2.88;;;1.90;;
11823;SDS011;5969;50.780;7.726;2023-07-31T13:22:17;1.70;;;1.45;;
11823;SDS011;5969;50.780;7.726;2023-07-31T13:24:43;2.30;;;1.75;;
11823;SDS011;5969;50.780;7.726;2023-07-31T13:27:10;2.25;;;2.05;;
11823;SDS011;5969;50.780;7.726;2023-07-31T13:29:37;3.15;;;1.90;;
11823;SDS011;5969;50.780;7.726;2023-07-31T13:32:04;3.10;;;2.08;;
11823;SDS011;5969;50.780;7.726;2023-07-31T13:34:33;3.10;;;1.65;;
11823;SDS011;5969;50.780;7.726;2023-07-31T13:37:00;3.28;;;1.98;;
11823;SDS011;5969;50.780;7.726;2023-07-31T13:39:27;4.15;;;1.98;;
11823;SDS011;5969;50.780;7.726;2023-07-31T13:41:54;2.63;;;2.00;;
11823;SDS011;5969;50.780;7.726;2023-07-31T13:44:21;3.65;;;2.15;;
11823;SDS011;5969;50.780;7.726;2023-07-31T13:46:48;2.58;;;2.00;;
11823;SDS011;5969;50.780;7.726;2023-07-31T13:49:15;3.75;;;1.90;;
11823;SDS011;5969;50.780;7.726;2023-07-31T13:51:43;2.63;;;1.90;;
11823;SDS011;5969;50.780;7.726;2023-07-31T13:54:10;3.42;;;2.17;;
11823;SDS011;5969;50.780;7.726;2023-07-31T13:56:38;2.47;;;2.28;;
11823;SDS011;5969;50.780;7.726;2023-07-31T13:59:05;2.95;;;2.38;;
11823;SDS011;5969;50.780;7.726;2023-07-31T14:01:33;5.38;;;2.22;;
11823;SDS011;5969;50.780;7.726;2023-07-31T14:04:00;5.07;;;2.58;;
11823;SDS011;5969;50.780;7.726;2023-07-31T14:06:27;3.20;;;2.28;;
11823;SDS011;5969;50.780;7.726;2023-07-31T14:08:55;3.17;;;2.28;;
11823;SDS011;5969;50.780;7.726;2023-07-31T14:11:22;3.95;;;2.38;;
11823;SDS011;5969;50.780;7.726;2023-07-31T14:13:52;3.03;;;2.28;;
11823;SDS011;5969;50.780;7.726;2023-07-31T14:16:19;3.70;;;2.65;;
11823;SDS011;5969;50.780;7.726;2023-07-31T14:18:47;2.85;;;2.55;;
11823;SDS011;5969;50.780;7.726;2023-07-31T14:21:13;3.50;;;2.80;;
11823;SDS011;5969;50.780;7.726;2023-07-31T14:23:41;3.47;;;2.60;;
11823;SDS011;5969;50.780;7.726;2023-07-31T14:26:09;5.25;;;2.58;;
11823;SDS011;5969;50.780;7.726;2023-07-31T14:28:36;4.00;;;2.08;;
11823;SDS011;5969;50.780;7.726;2023-07-31T14:31:03;3.33;;;2.25;;
11823;SDS011;5969;50.780;7.726;2023-07-31T14:33:29;2.47;;;2.03;;
11823;SDS011;5969;50.780;7.726;2023-07-31T14:35:56;4.65;;;2.35;;
11823;SDS011;5969;50.780;7.726;2023-07-31T14:38:23;2.72;;;2.45;;
11823;SDS011;5969;50.780;7.726;2023-07-31T14:40:50;2.97;;;1.73;;
11823;SDS011;5969;50.780;7.726;2023-07-31T14:43:19;2.90;;;1.90;;
11823;SDS011;5969;50.780;7.726;2023-07-31T14:45:45;2.22;;;1.88;;
11823;SDS011;5969;50.780;7.726;2023-07-31T14:48:12;4.70;;;1.75;;
11823;SDS011;5969;50.780;7.726;2023-07-31T14:50:39;2.75;;;1.90;;
11823;SDS011;5969;50.780;7.726;2023-07-31T14:53:07;2.20;;;2.00;;
11823;SDS011;5969;50.780;7.726;2023-07-31T14:55:34;5.25;;;1.92;;
11823;SDS011;5969;50.780;7.726;2023-07-31T14:58:01;2.35;;;2.15;;
11823;SDS011;5969;50.780;7.726;2023-07-31T15:00:29;3.67;;;2.20;;
11823;SDS011;5969;50.780;7.726;2023-07-31T15:02:56;2.00;;;1.80;;
11823;SDS011;5969;50.780;7.726;2023-07-31T15:05:23;2.30;;;2.10;;
11823;SDS011;5969;50.780;7.726;2023-07-31T15:07:50;2.20;;;1.95;;